sensor_id;sensor_type;location;lat;lon;timestamp;P1;durP1;ratioP1;P2;durP2;ratioP2
73023;SDS011;61199;47.526;8.538;2022-12-29T00:00:13;5.70;;;2.27;;
73023;SDS011;61199;47.526;8.538;2022-12-29T00:02:39;3.10;;;1.73;;
73023;SDS011;61199;47.526;8.538;2022-12-29T00:05:06;3.37;;;2.07;;
73023;SDS011;61199;47.526;8.538;2022-12-29T00:07:33;2.77;;;1.80;;
73023;SDS011;61199;47.526;8.538;2022-12-29T00:09:59;8.50;;;2.00;;
73023;SDS011;61199;47.526;8.538;2022-12-29T00:12:26;2.57;;;1.90;;
73023;SDS011;61199;47.526;8.538;2022-12-29T00:15:12;3.80;;;2.30;;
73023;SDS011;61199;47.526;8.538;2022-12-29T00:17:57;4.37;;;2.20;;
73023;SDS011;61199;47.526;8.538;2022-12-29T00:20:23;3.53;;;1.63;;
73023;SDS011;61199;47.526;8.538;2022-12-29T00:23:08;3.50;;;2.00;;
73023;SDS011;61199;47.526;8.538;2022-12-29T00:25:53;5.00;;;2.23;;
73023;SDS011;61199;47.526;8.538;2022-12-29T00:28:39;4.53;;;2.07;;
73023;SDS011;61199;47.526;8.538;2022-12-29T00:31:24;3.80;;;1.93;;
73023;SDS011;61199;47.526;8.538;2022-12-29T00:34:11;5.60;;;2.10;;
73023;SDS011;61199;47.526;8.538;2022-12-29T00:36:56;3.47;;;2.10;;
73023;SDS011;61199;47.526;8.538;2022-12-29T00:39:23;4.13;;;2.10;;
73023;SDS011;61199;47.526;8.538;2022-12-29T00:42:08;3.50;;;2.10;;
73023;SDS011;61199;47.526;8.538;2022-12-29T00:44:54;2.77;;;1.80;;
73023;SDS011;61199;47.526;8.538;2022-12-29T00:47:20;2.53;;;1.80;;
73023;SDS011;61199;47.526;8.538;2022-12-29T00:49:47;3.53;;;2.13;;
73023;SDS011;61199;47.526;8.538;2022-12-29T00:52:13;3.40;;;1.90;;
73023;SDS011;61199;47.526;8.538;2022-12-29T00:54:40;5.80;;;2.03;;
73023;SDS011;61199;47.526;8.538;2022-12-29T00:57:08;3.60;;;1.80;;
73023;SDS011;61199;47.526;8.538;2022-12-29T00:59:36;5.07;;;2.07;;
73023;SDS011;61199;47.526;8.538;2022-12-29T01:02:03;3.47;;;1.93;;
73023;SDS011;61199;47.526;8.538;2022-12-29T01:04:30;2.53;;;1.70;;
73023;SDS011;61199;47.526;8.538;2022-12-29T01:06:56;5.90;;;2.30;;
73023;SDS011;61199;47.526;8.538;2022-12-29T01:09:22;3.90;;;1.60;;
73023;SDS011;61199;47.526;8.538;2022-12-29T01:12:08;3.53;;;1.83;;
73023;SDS011;61199;47.526;8.538;2022-12-29T01:14:35;3.30;;;1.73;;
73023;SDS011;61199;47.526;8.538;2022-12-29T01:17:02;4.80;;;2.10;;
73023;SDS011;61199;47.526;8.538;2022-12-29T01:19:29;2.93;;;1.63;;
73023;SDS011;61199;47.526;8.538;2022-12-29T01:21:56;2.93;;;1.80;;
73023;SDS011;61199;47.526;8.538;2022-12-29T01:24:22;2.83;;;1.80;;
73023;SDS011;61199;47.526;8.538;2022-12-29T01:26:50;2.63;;;1.90;;
73023;SDS011;61199;47.526;8.538;2022-12-29T01:29:16;2.63;;;1.50;;
73023;SDS011;61199;47.526;8.538;2022-12-29T01:31:43;4.20;;;2.13;;
73023;SDS011;61199;47.526;8.538;2022-12-29T01:34:09;4.60;;;2.30;;
73023;SDS011;61199;47.526;8.538;2022-12-29T01:36:36;2.90;;;1.90;;
73023;SDS011;61199;47.526;8.538;2022-12-29T01:39:02;3.40;;;2.03;;
73023;SDS011;61199;47.526;8.538;2022-12-29T01:41:29;2.90;;;1.90;;
73023;SDS011;61199;47.526;8.538;2022-12-29T01:43:56;4.47;;;1.90;;
73023;SDS011;61199;47.526;8.538;2022-12-29T01:46:26;7.00;;;1.90;;
73023;SDS011;61199;47.526;8.538;2022-12-29T01:51:58;3.40;;;1.70;;
73023;SDS011;61199;47.526;8.538;2022-12-29T01:54:30;3.80;;;2.00;;
73023;SDS011;61199;47.526;8.538;2022-12-29T01:56:59;3.77;;;2.03;;
73023;SDS011;61199;47.526;8.538;2022-12-29T01:59:30;4.17;;;2.20;;
73023;SDS011;61199;47.526;8.538;2022-12-29T02:02:00;5.63;;;2.47;;
73023;SDS011;61199;47.526;8.538;2022-12-29T02:04:28;4.80;;;2.10;;
73023;SDS011;61199;47.526;8.538;2022-12-29T02:07:03;5.87;;;2.07;;
73023;SDS011;61199;47.526;8.538;2022-12-29T02:09:32;2.93;;;1.80;;
73023;SDS011;61199;47.526;8.538;2022-12-29T02:11:58;3.27;;;2.00;;
73023;SDS011;61199;47.526;8.538;2022-12-29T02:14:25;4.20;;;1.83;;
73023;SDS011;61199;47.526;8.538;2022-12-29T02:19:50;5.57;;;2.40;;
73023;SDS011;61199;47.526;8.538;2022-12-29T02:36:44;4.47;;;2.00;;
73023;SDS011;61199;47.526;8.538;2022-12-29T02:39:16;4.93;;;1.93;;
73023;SDS011;61199;47.526;8.538;2022-12-29T02:46:58;3.93;;;2.20;;
73023;SDS011;61199;47.526;8.538;2022-12-29T02:49:33;4.60;;;2.47;;
73023;SDS011;61199;47.526;8.538;2022-12-29T02:52:16;3.97;;;2.07;;
73023;SDS011;61199;47.526;8.538;2022-12-29T02:54:47;11.33;;;2.47;;
73023;SDS011;61199;47.526;8.538;2022-12-29T02:57:28;5.67;;;2.43;;
73023;SDS011;61199;47.526;8.538;2022-12-29T03:08:31;4.63;;;2.60;;
73023;SDS011;61199;47.526;8.538;2022-12-29T03:11:15;6.07;;;2.33;;
73023;SDS011;61199;47.526;8.538;2022-12-29T03:14:36;4.57;;;2.17;;
73023;SDS011;61199;47.526;8.538;2022-12-29T03:17:24;8.00;;;2.97;;
73023;SDS011;61199;47.526;8.538;2022-12-29T03:19:59;3.53;;;2.03;;
73023;SDS011;61199;47.526;8.538;2022-12-29T03:22:31;6.40;;;2.53;;
73023;SDS011;61199;47.526;8.538;2022-12-29T03:25:15;5.30;;;2.10;;
73023;SDS011;61199;47.526;8.538;2022-12-29T03:27:49;5.93;;;2.20;;
73023;SDS011;61199;47.526;8.538;2022-12-29T03:30:19;5.83;;;1.97;;
73023;SDS011;61199;47.526;8.538;2022-12-29T03:32:46;7.20;;;2.70;;
73023;SDS011;61199;47.526;8.538;2022-12-29T03:35:17;3.80;;;2.07;;
73023;SDS011;61199;47.526;8.538;2022-12-29T03:37:55;5.67;;;2.10;;
73023;SDS011;61199;47.526;8.538;2022-12-29T03:40:26;4.50;;;1.97;;
73023;SDS011;61199;47.526;8.538;2022-12-29T03:42:54;4.40;;;2.67;;
73023;SDS011;61199;47.526;8.538;2022-12-29T03:45:22;4.30;;;2.30;;
73023;SDS011;61199;47.526;8.538;2022-12-29T03:47:48;5.57;;;2.47;;
73023;SDS011;61199;47.526;8.538;2022-12-29T03:50:14;6.70;;;2.63;;
73023;SDS011;61199;47.526;8.538;2022-12-29T03:52:43;6.00;;;2.40;;
73023;SDS011;61199;47.526;8.538;2022-12-29T03:55:09;7.27;;;3.00;;
73023;SDS011;61199;47.526;8.538;2022-12-29T03:57:36;4.00;;;2.70;;
73023;SDS011;61199;47.526;8.538;2022-12-29T04:00:03;4.50;;;2.97;;
73023;SDS011;61199;47.526;8.538;2022-12-29T04:02:32;6.87;;;2.83;;
73023;SDS011;61199;47.526;8.538;2022-12-29T04:04:59;6.20;;;3.13;;
73023;SDS011;61199;47.526;8.538;2022-12-29T04:07:26;10.33;;;2.93;;
73023;SDS011;61199;47.526;8.538;2022-12-29T04:09:52;6.70;;;3.30;;
73023;SDS011;61199;47.526;8.538;2022-12-29T04:12:18;8.60;;;2.63;;
73023;SDS011;61199;47.526;8.538;2022-12-29T04:14:45;6.70;;;2.83;;
73023;SDS011;61199;47.526;8.538;2022-12-29T04:17:11;4.53;;;3.00;;
73023;SDS011;61199;47.526;8.538;2022-12-29T04:19:38;13.30;;;5.43;;
73023;SDS011;61199;47.526;8.538;2022-12-29T04:22:04;6.90;;;3.10;;
73023;SDS011;61199;47.526;8.538;2022-12-29T04:24:30;6.63;;;2.67;;
73023;SDS011;61199;47.526;8.538;2022-12-29T04:26:57;8.70;;;3.00;;
73023;SDS011;61199;47.526;8.538;2022-12-29T04:29:23;4.87;;;3.10;;
73023;SDS011;61199;47.526;8.538;2022-12-29T04:31:50;4.77;;;2.57;;
73023;SDS011;61199;47.526;8.538;2022-12-29T04:34:16;4.30;;;2.77;;
73023;SDS011;61199;47.526;8.538;2022-12-29T04:36:43;9.37;;;3.37;;
73023;SDS011;61199;47.526;8.538;2022-12-29T04:39:10;6.40;;;3.30;;
73023;SDS011;61199;47.526;8.538;2022-12-29T04:41:36;3.80;;;2.47;;
73023;SDS011;61199;47.526;8.538;2022-12-29T04:44:02;6.20;;;2.80;;
73023;SDS011;61199;47.526;8.538;2022-12-29T04:46:29;4.77;;;2.90;;
73023;SDS011;61199;47.526;8.538;2022-12-29T04:48:55;6.57;;;2.47;;
73023;SDS011;61199;47.526;8.538;2022-12-29T04:51:22;6.00;;;2.57;;
73023;SDS011;61199;47.526;8.538;2022-12-29T04:53:48;6.13;;;2.60;;
73023;SDS011;61199;47.526;8.538;2022-12-29T04:56:15;5.43;;;2.63;;
73023;SDS011;61199;47.526;8.538;2022-12-29T04:58:41;10.47;;;2.80;;
73023;SDS011;61199;47.526;8.538;2022-12-29T05:01:07;5.50;;;3.13;;
73023;SDS011;61199;47.526;8.538;2022-12-29T05:03:34;5.27;;;2.93;;
73023;SDS011;61199;47.526;8.538;2022-12-29T05:06:00;5.07;;;2.50;;
73023;SDS011;61199;47.526;8.538;2022-12-29T05:08:26;8.70;;;2.80;;
73023;SDS011;61199;47.526;8.538;2022-12-29T05:10:54;5.83;;;2.40;;
73023;SDS011;61199;47.526;8.538;2022-12-29T05:13:20;6.90;;;2.20;;
73023;SDS011;61199;47.526;8.538;2022-12-29T05:15:53;4.37;;;2.37;;
73023;SDS011;61199;47.526;8.538;2022-12-29T05:18:19;5.23;;;2.20;;
73023;SDS011;61199;47.526;8.538;2022-12-29T05:20:46;5.80;;;2.53;;
73023;SDS011;61199;47.526;8.538;2022-12-29T05:23:13;6.07;;;2.60;;
73023;SDS011;61199;47.526;8.538;2022-12-29T05:25:42;4.20;;;2.53;;
73023;SDS011;61199;47.526;8.538;2022-12-29T05:28:11;3.33;;;2.50;;
73023;SDS011;61199;47.526;8.538;2022-12-29T05:30:39;5.47;;;2.43;;
73023;SDS011;61199;47.526;8.538;2022-12-29T05:33:06;4.23;;;2.20;;
73023;SDS011;61199;47.526;8.538;2022-12-29T05:35:32;4.20;;;2.23;;
73023;SDS011;61199;47.526;8.538;2022-12-29T05:37:59;11.97;;;3.23;;
73023;SDS011;61199;47.526;8.538;2022-12-29T05:40:25;7.57;;;2.60;;
73023;SDS011;61199;47.526;8.538;2022-12-29T05:42:52;4.13;;;2.20;;
73023;SDS011;61199;47.526;8.538;2022-12-29T05:45:18;8.57;;;2.50;;
73023;SDS011;61199;47.526;8.538;2022-12-29T05:47:44;5.90;;;2.83;;
73023;SDS011;61199;47.526;8.538;2022-12-29T05:50:11;8.63;;;2.60;;
73023;SDS011;61199;47.526;8.538;2022-12-29T05:52:37;8.27;;;2.60;;
73023;SDS011;61199;47.526;8.538;2022-12-29T05:55:04;5.43;;;2.63;;
73023;SDS011;61199;47.526;8.538;2022-12-29T05:57:30;6.30;;;3.20;;
73023;SDS011;61199;47.526;8.538;2022-12-29T05:59:58;6.40;;;3.20;;
73023;SDS011;61199;47.526;8.538;2022-12-29T06:02:24;6.57;;;2.90;;
73023;SDS011;61199;47.526;8.538;2022-12-29T06:04:51;6.60;;;3.20;;
73023;SDS011;61199;47.526;8.538;2022-12-29T06:07:17;6.87;;;3.00;;
73023;SDS011;61199;47.526;8.538;2022-12-29T06:09:44;6.67;;;3.00;;
73023;SDS011;61199;47.526;8.538;2022-12-29T06:12:10;11.20;;;3.50;;
73023;SDS011;61199;47.526;8.538;2022-12-29T06:14:37;10.30;;;3.27;;
73023;SDS011;61199;47.526;8.538;2022-12-29T06:17:03;7.27;;;3.27;;
73023;SDS011;61199;47.526;8.538;2022-12-29T06:19:29;5.57;;;2.87;;
73023;SDS011;61199;47.526;8.538;2022-12-29T06:21:56;6.80;;;2.93;;
73023;SDS011;61199;47.526;8.538;2022-12-29T06:24:22;4.63;;;3.10;;
73023;SDS011;61199;47.526;8.538;2022-12-29T06:26:48;5.30;;;3.23;;
73023;SDS011;61199;47.526;8.538;2022-12-29T06:29:15;7.13;;;3.83;;
73023;SDS011;61199;47.526;8.538;2022-12-29T06:31:43;5.67;;;2.57;;
73023;SDS011;61199;47.526;8.538;2022-12-29T06:34:12;8.53;;;3.30;;
73023;SDS011;61199;47.526;8.538;2022-12-29T06:36:38;11.73;;;4.07;;
73023;SDS011;61199;47.526;8.538;2022-12-29T06:39:05;5.60;;;3.30;;
73023;SDS011;61199;47.526;8.538;2022-12-29T06:41:31;7.77;;;3.20;;
73023;SDS011;61199;47.526;8.538;2022-12-29T06:43:58;11.70;;;3.70;;
73023;SDS011;61199;47.526;8.538;2022-12-29T06:46:24;9.13;;;2.90;;
73023;SDS011;61199;47.526;8.538;2022-12-29T06:48:51;7.83;;;3.60;;
73023;SDS011;61199;47.526;8.538;2022-12-29T06:51:17;12.27;;;3.30;;
73023;SDS011;61199;47.526;8.538;2022-12-29T06:53:44;7.03;;;3.40;;
73023;SDS011;61199;47.526;8.538;2022-12-29T06:56:10;11.60;;;3.53;;
73023;SDS011;61199;47.526;8.538;2022-12-29T06:58:36;7.03;;;3.13;;
73023;SDS011;61199;47.526;8.538;2022-12-29T07:01:03;5.23;;;2.90;;
73023;SDS011;61199;47.526;8.538;2022-12-29T07:03:30;9.00;;;3.37;;
73023;SDS011;61199;47.526;8.538;2022-12-29T07:05:56;8.20;;;2.80;;
73023;SDS011;61199;47.526;8.538;2022-12-29T07:08:24;9.20;;;2.83;;
73023;SDS011;61199;47.526;8.538;2022-12-29T07:10:50;7.90;;;3.73;;
73023;SDS011;61199;47.526;8.538;2022-12-29T07:13:17;8.17;;;3.80;;
73023;SDS011;61199;47.526;8.538;2022-12-29T07:15:43;7.73;;;3.13;;
73023;SDS011;61199;47.526;8.538;2022-12-29T07:18:10;7.17;;;3.67;;
73023;SDS011;61199;47.526;8.538;2022-12-29T07:20:36;10.63;;;3.57;;
73023;SDS011;61199;47.526;8.538;2022-12-29T07:23:03;10.57;;;3.57;;
73023;SDS011;61199;47.526;8.538;2022-12-29T07:25:29;7.20;;;2.83;;
73023;SDS011;61199;47.526;8.538;2022-12-29T07:27:55;4.93;;;2.90;;
73023;SDS011;61199;47.526;8.538;2022-12-29T07:30:22;5.30;;;3.20;;
73023;SDS011;61199;47.526;8.538;2022-12-29T07:32:48;7.30;;;3.17;;
73023;SDS011;61199;47.526;8.538;2022-12-29T07:35:14;7.10;;;3.27;;
73023;SDS011;61199;47.526;8.538;2022-12-29T07:37:42;9.90;;;2.80;;
73023;SDS011;61199;47.526;8.538;2022-12-29T07:40:09;6.43;;;2.77;;
73023;SDS011;61199;47.526;8.538;2022-12-29T07:42:36;7.87;;;3.70;;
73023;SDS011;61199;47.526;8.538;2022-12-29T07:45:03;5.80;;;2.50;;
73023;SDS011;61199;47.526;8.538;2022-12-29T07:47:30;9.40;;;3.67;;
73023;SDS011;61199;47.526;8.538;2022-12-29T07:49:56;11.03;;;2.97;;
73023;SDS011;61199;47.526;8.538;2022-12-29T07:52:22;3.90;;;2.70;;
73023;SDS011;61199;47.526;8.538;2022-12-29T07:54:49;6.13;;;2.50;;
73023;SDS011;61199;47.526;8.538;2022-12-29T07:57:15;8.60;;;3.53;;
73023;SDS011;61199;47.526;8.538;2022-12-29T07:59:41;11.90;;;4.80;;
73023;SDS011;61199;47.526;8.538;2022-12-29T08:02:09;8.47;;;3.60;;
73023;SDS011;61199;47.526;8.538;2022-12-29T08:04:37;5.60;;;3.30;;
73023;SDS011;61199;47.526;8.538;2022-12-29T08:07:04;9.90;;;4.03;;
73023;SDS011;61199;47.526;8.538;2022-12-29T08:09:30;7.70;;;3.20;;
73023;SDS011;61199;47.526;8.538;2022-12-29T08:11:56;6.60;;;3.40;;
73023;SDS011;61199;47.526;8.538;2022-12-29T08:14:23;7.97;;;2.97;;
73023;SDS011;61199;47.526;8.538;2022-12-29T08:16:49;7.03;;;2.60;;
73023;SDS011;61199;47.526;8.538;2022-12-29T08:19:16;7.40;;;3.30;;
73023;SDS011;61199;47.526;8.538;2022-12-29T08:21:42;10.13;;;3.50;;
73023;SDS011;61199;47.526;8.538;2022-12-29T08:24:08;6.77;;;3.10;;
73023;SDS011;61199;47.526;8.538;2022-12-29T08:26:35;5.40;;;3.03;;
73023;SDS011;61199;47.526;8.538;2022-12-29T08:29:01;9.13;;;3.53;;
73023;SDS011;61199;47.526;8.538;2022-12-29T08:31:28;7.10;;;3.03;;
73023;SDS011;61199;47.526;8.538;2022-12-29T08:33:54;8.67;;;3.37;;
73023;SDS011;61199;47.526;8.538;2022-12-29T08:36:21;5.63;;;2.43;;
73023;SDS011;61199;47.526;8.538;2022-12-29T08:38:47;5.97;;;3.53;;
73023;SDS011;61199;47.526;8.538;2022-12-29T08:41:13;6.27;;;2.87;;
73023;SDS011;61199;47.526;8.538;2022-12-29T08:43:40;7.67;;;3.30;;
73023;SDS011;61199;47.526;8.538;2022-12-29T08:46:06;9.00;;;2.90;;
73023;SDS011;61199;47.526;8.538;2022-12-29T08:48:33;5.40;;;2.50;;
73023;SDS011;61199;47.526;8.538;2022-12-29T08:50:59;6.10;;;3.40;;
73023;SDS011;61199;47.526;8.538;2022-12-29T08:53:26;4.40;;;2.53;;
73023;SDS011;61199;47.526;8.538;2022-12-29T08:55:56;7.47;;;2.73;;
73023;SDS011;61199;47.526;8.538;2022-12-29T08:58:30;6.53;;;2.80;;
73023;SDS011;61199;47.526;8.538;2022-12-29T09:00:57;11.33;;;2.83;;
73023;SDS011;61199;47.526;8.538;2022-12-29T09:03:25;5.80;;;2.70;;
73023;SDS011;61199;47.526;8.538;2022-12-29T09:06:11;12.90;;;3.60;;
73023;SDS011;61199;47.526;8.538;2022-12-29T09:08:38;9.77;;;3.10;;
73023;SDS011;61199;47.526;8.538;2022-12-29T09:11:06;6.03;;;3.03;;
73023;SDS011;61199;47.526;8.538;2022-12-29T09:13:58;8.10;;;2.57;;
73023;SDS011;61199;47.526;8.538;2022-12-29T09:16:25;7.20;;;2.90;;
73023;SDS011;61199;47.526;8.538;2022-12-29T09:18:52;14.70;;;2.53;;
73023;SDS011;61199;47.526;8.538;2022-12-29T09:21:19;5.67;;;2.33;;
73023;SDS011;61199;47.526;8.538;2022-12-29T09:23:45;6.37;;;2.53;;
73023;SDS011;61199;47.526;8.538;2022-12-29T09:26:12;4.57;;;2.53;;
73023;SDS011;61199;47.526;8.538;2022-12-29T09:28:38;6.33;;;2.70;;
73023;SDS011;61199;47.526;8.538;2022-12-29T09:31:05;5.80;;;1.90;;
73023;SDS011;61199;47.526;8.538;2022-12-29T09:33:34;7.60;;;2.87;;
73023;SDS011;61199;47.526;8.538;2022-12-29T09:36:00;5.77;;;2.40;;
73023;SDS011;61199;47.526;8.538;2022-12-29T09:38:27;7.60;;;2.57;;
73023;SDS011;61199;47.526;8.538;2022-12-29T09:40:56;5.47;;;2.73;;
73023;SDS011;61199;47.526;8.538;2022-12-29T09:43:42;6.30;;;2.40;;
73023;SDS011;61199;47.526;8.538;2022-12-29T09:46:31;5.83;;;2.43;;
73023;SDS011;61199;47.526;8.538;2022-12-29T09:51:32;9.43;;;2.50;;
73023;SDS011;61199;47.526;8.538;2022-12-29T09:54:04;8.13;;;2.57;;
73023;SDS011;61199;47.526;8.538;2022-12-29T09:56:59;10.23;;;1.90;;
73023;SDS011;61199;47.526;8.538;2022-12-29T09:59:39;6.17;;;2.67;;
73023;SDS011;61199;47.526;8.538;2022-12-29T10:02:13;7.20;;;2.73;;
73023;SDS011;61199;47.526;8.538;2022-12-29T10:05:08;7.37;;;2.70;;
73023;SDS011;61199;47.526;8.538;2022-12-29T10:07:49;11.40;;;2.03;;
73023;SDS011;61199;47.526;8.538;2022-12-29T10:10:40;4.07;;;2.33;;
73023;SDS011;61199;47.526;8.538;2022-12-29T10:16:01;8.30;;;2.70;;
73023;SDS011;61199;47.526;8.538;2022-12-29T10:21:45;10.73;;;2.60;;
73023;SDS011;61199;47.526;8.538;2022-12-29T10:24:25;5.47;;;2.40;;
73023;SDS011;61199;47.526;8.538;2022-12-29T10:26:54;4.33;;;2.23;;
73023;SDS011;61199;47.526;8.538;2022-12-29T10:29:26;5.83;;;2.60;;
73023;SDS011;61199;47.526;8.538;2022-12-29T10:32:04;10.20;;;2.70;;
73023;SDS011;61199;47.526;8.538;2022-12-29T10:34:41;14.73;;;2.60;;
73023;SDS011;61199;47.526;8.538;2022-12-29T10:40:13;6.13;;;1.93;;
73023;SDS011;61199;47.526;8.538;2022-12-29T10:43:01;4.13;;;2.30;;
73023;SDS011;61199;47.526;8.538;2022-12-29T10:45:46;6.87;;;2.20;;
73023;SDS011;61199;47.526;8.538;2022-12-29T10:48:23;6.73;;;2.50;;
73023;SDS011;61199;47.526;8.538;2022-12-29T10:50:58;5.80;;;2.10;;
73023;SDS011;61199;47.526;8.538;2022-12-29T10:53:31;3.30;;;2.30;;
73023;SDS011;61199;47.526;8.538;2022-12-29T10:56:04;10.77;;;2.33;;
73023;SDS011;61199;47.526;8.538;2022-12-29T10:58:41;5.80;;;1.97;;
73023;SDS011;61199;47.526;8.538;2022-12-29T11:01:15;6.47;;;2.27;;
73023;SDS011;61199;47.526;8.538;2022-12-29T11:03:46;11.13;;;2.27;;
73023;SDS011;61199;47.526;8.538;2022-12-29T11:06:40;5.07;;;2.30;;
73023;SDS011;61199;47.526;8.538;2022-12-29T11:09:31;3.97;;;1.80;;
73023;SDS011;61199;47.526;8.538;2022-12-29T11:12:19;6.87;;;1.90;;
73023;SDS011;61199;47.526;8.538;2022-12-29T11:14:47;4.10;;;2.33;;
73023;SDS011;61199;47.526;8.538;2022-12-29T11:17:28;3.97;;;1.80;;
73023;SDS011;61199;47.526;8.538;2022-12-29T11:19:54;5.53;;;2.10;;
73023;SDS011;61199;47.526;8.538;2022-12-29T11:22:22;6.63;;;1.90;;
73023;SDS011;61199;47.526;8.538;2022-12-29T11:24:51;5.80;;;1.87;;
73023;SDS011;61199;47.526;8.538;2022-12-29T11:27:19;7.17;;;2.30;;
73023;SDS011;61199;47.526;8.538;2022-12-29T11:29:51;6.10;;;2.00;;
73023;SDS011;61199;47.526;8.538;2022-12-29T11:32:23;7.87;;;2.20;;
73023;SDS011;61199;47.526;8.538;2022-12-29T11:34:54;6.83;;;1.97;;
73023;SDS011;61199;47.526;8.538;2022-12-29T11:40:05;6.77;;;2.03;;
73023;SDS011;61199;47.526;8.538;2022-12-29T11:42:42;3.97;;;1.50;;
73023;SDS011;61199;47.526;8.538;2022-12-29T11:47:49;6.93;;;1.50;;
73023;SDS011;61199;47.526;8.538;2022-12-29T11:50:19;4.70;;;1.43;;
73023;SDS011;61199;47.526;8.538;2022-12-29T11:52:48;2.70;;;1.80;;
73023;SDS011;61199;47.526;8.538;2022-12-29T11:55:21;7.93;;;1.47;;
73023;SDS011;61199;47.526;8.538;2022-12-29T11:57:50;7.47;;;1.80;;
73023;SDS011;61199;47.526;8.538;2022-12-29T12:00:19;9.30;;;1.80;;
73023;SDS011;61199;47.526;8.538;2022-12-29T12:02:50;3.00;;;1.60;;
73023;SDS011;61199;47.526;8.538;2022-12-29T12:05:24;5.93;;;2.00;;
73023;SDS011;61199;47.526;8.538;2022-12-29T12:08:01;2.40;;;1.20;;
73023;SDS011;61199;47.526;8.538;2022-12-29T12:10:37;4.93;;;2.17;;
73023;SDS011;61199;47.526;8.538;2022-12-29T12:13:14;3.40;;;2.17;;
73023;SDS011;61199;47.526;8.538;2022-12-29T12:15:47;7.37;;;1.60;;
73023;SDS011;61199;47.526;8.538;2022-12-29T12:21:11;4.60;;;1.90;;
73023;SDS011;61199;47.526;8.538;2022-12-29T12:23:51;3.23;;;1.47;;
73023;SDS011;61199;47.526;8.538;2022-12-29T12:29:13;3.43;;;1.50;;
73023;SDS011;61199;47.526;8.538;2022-12-29T12:31:48;3.07;;;1.50;;
73023;SDS011;61199;47.526;8.538;2022-12-29T12:34:25;3.53;;;1.53;;
73023;SDS011;61199;47.526;8.538;2022-12-29T12:37:10;4.80;;;1.73;;
73023;SDS011;61199;47.526;8.538;2022-12-29T12:39:59;5.53;;;1.67;;
73023;SDS011;61199;47.526;8.538;2022-12-29T12:50:56;4.83;;;1.70;;
73023;SDS011;61199;47.526;8.538;2022-12-29T12:56:34;5.80;;;1.47;;
73023;SDS011;61199;47.526;8.538;2022-12-29T13:04:59;2.20;;;1.60;;
73023;SDS011;61199;47.526;8.538;2022-12-29T13:14:05;3.83;;;1.70;;
73023;SDS011;61199;47.526;8.538;2022-12-29T13:16:41;5.73;;;1.40;;
73023;SDS011;61199;47.526;8.538;2022-12-29T13:30:53;2.90;;;1.57;;
73023;SDS011;61199;47.526;8.538;2022-12-29T13:36:45;5.67;;;2.50;;
73023;SDS011;61199;47.526;8.538;2022-12-29T13:41:50;4.20;;;1.53;;
73023;SDS011;61199;47.526;8.538;2022-12-29T13:44:28;5.00;;;1.80;;
73023;SDS011;61199;47.526;8.538;2022-12-29T13:49:51;2.47;;;1.83;;
73023;SDS011;61199;47.526;8.538;2022-12-29T13:52:40;6.80;;;1.30;;
73023;SDS011;61199;47.526;8.538;2022-12-29T14:01:04;3.73;;;1.70;;
73023;SDS011;61199;47.526;8.538;2022-12-29T14:03:44;2.23;;;1.40;;
73023;SDS011;61199;47.526;8.538;2022-12-29T14:06:22;3.30;;;1.63;;
73023;SDS011;61199;47.526;8.538;2022-12-29T14:08:57;6.23;;;1.60;;
73023;SDS011;61199;47.526;8.538;2022-12-29T14:11:33;3.90;;;1.67;;
73023;SDS011;61199;47.526;8.538;2022-12-29T14:17:10;2.90;;;1.20;;
73023;SDS011;61199;47.526;8.538;2022-12-29T14:19:41;5.13;;;1.40;;
73023;SDS011;61199;47.526;8.538;2022-12-29T14:22:10;5.37;;;1.60;;
73023;SDS011;61199;47.526;8.538;2022-12-29T14:24:39;4.20;;;1.20;;
73023;SDS011;61199;47.526;8.538;2022-12-29T14:34:53;3.73;;;1.50;;
73023;SDS011;61199;47.526;8.538;2022-12-29T14:37:24;7.47;;;1.90;;
73023;SDS011;61199;47.526;8.538;2022-12-29T14:40:14;4.87;;;1.47;;
73023;SDS011;61199;47.526;8.538;2022-12-29T14:42:45;4.50;;;1.30;;
73023;SDS011;61199;47.526;8.538;2022-12-29T14:47:40;6.83;;;1.67;;
73023;SDS011;61199;47.526;8.538;2022-12-29T14:50:16;8.37;;;1.50;;
73023;SDS011;61199;47.526;8.538;2022-12-29T14:52:56;6.20;;;1.67;;
73023;SDS011;61199;47.526;8.538;2022-12-29T14:55:39;5.23;;;2.30;;
73023;SDS011;61199;47.526;8.538;2022-12-29T14:58:17;4.50;;;2.33;;
73023;SDS011;61199;47.526;8.538;2022-12-29T15:00:47;12.47;;;2.10;;
73023;SDS011;61199;47.526;8.538;2022-12-29T15:03:17;15.53;;;2.30;;
73023;SDS011;61199;47.526;8.538;2022-12-29T15:05:46;5.57;;;1.70;;
73023;SDS011;61199;47.526;8.538;2022-12-29T15:08:17;4.57;;;1.73;;
73023;SDS011;61199;47.526;8.538;2022-12-29T15:10:54;3.77;;;2.00;;
73023;SDS011;61199;47.526;8.538;2022-12-29T15:13:32;3.23;;;1.53;;
73023;SDS011;61199;47.526;8.538;2022-12-29T15:16:04;5.23;;;1.83;;
73023;SDS011;61199;47.526;8.538;2022-12-29T15:18:31;4.23;;;1.80;;
73023;SDS011;61199;47.526;8.538;2022-12-29T15:21:03;5.60;;;1.90;;
73023;SDS011;61199;47.526;8.538;2022-12-29T15:23:32;7.40;;;1.90;;
73023;SDS011;61199;47.526;8.538;2022-12-29T15:26:07;6.17;;;1.73;;
73023;SDS011;61199;47.526;8.538;2022-12-29T15:28:41;4.00;;;2.10;;
73023;SDS011;61199;47.526;8.538;2022-12-29T15:31:18;12.60;;;2.00;;
73023;SDS011;61199;47.526;8.538;2022-12-29T15:34:00;3.00;;;1.97;;
73023;SDS011;61199;47.526;8.538;2022-12-29T15:36:29;7.00;;;1.90;;
73023;SDS011;61199;47.526;8.538;2022-12-29T15:41:55;3.93;;;1.80;;
73023;SDS011;61199;47.526;8.538;2022-12-29T15:44:28;4.70;;;1.60;;
73023;SDS011;61199;47.526;8.538;2022-12-29T15:47:06;2.47;;;1.60;;
73023;SDS011;61199;47.526;8.538;2022-12-29T15:49:41;2.23;;;1.20;;
73023;SDS011;61199;47.526;8.538;2022-12-29T15:52:10;5.80;;;1.60;;
73023;SDS011;61199;47.526;8.538;2022-12-29T15:54:37;5.53;;;1.80;;
73023;SDS011;61199;47.526;8.538;2022-12-29T15:57:04;4.33;;;1.47;;
73023;SDS011;61199;47.526;8.538;2022-12-29T15:59:48;3.53;;;1.50;;
73023;SDS011;61199;47.526;8.538;2022-12-29T16:02:14;7.70;;;1.57;;
73023;SDS011;61199;47.526;8.538;2022-12-29T16:04:41;4.07;;;2.07;;
73023;SDS011;61199;47.526;8.538;2022-12-29T16:07:29;3.63;;;1.70;;
73023;SDS011;61199;47.526;8.538;2022-12-29T16:10:21;7.50;;;1.67;;
73023;SDS011;61199;47.526;8.538;2022-12-29T16:18:36;5.60;;;1.60;;
73023;SDS011;61199;47.526;8.538;2022-12-29T16:21:04;4.63;;;1.70;;
73023;SDS011;61199;47.526;8.538;2022-12-29T16:23:38;4.73;;;2.20;;
73023;SDS011;61199;47.526;8.538;2022-12-29T16:26:04;5.57;;;1.70;;
73023;SDS011;61199;47.526;8.538;2022-12-29T16:28:43;6.77;;;2.20;;
73023;SDS011;61199;47.526;8.538;2022-12-29T16:31:18;3.50;;;1.80;;
73023;SDS011;61199;47.526;8.538;2022-12-29T16:33:46;4.00;;;1.90;;
73023;SDS011;61199;47.526;8.538;2022-12-29T16:36:51;6.93;;;1.90;;
73023;SDS011;61199;47.526;8.538;2022-12-29T16:39:20;4.00;;;2.20;;
73023;SDS011;61199;47.526;8.538;2022-12-29T16:41:50;4.27;;;2.17;;
73023;SDS011;61199;47.526;8.538;2022-12-29T16:44:21;5.33;;;2.40;;
73023;SDS011;61199;47.526;8.538;2022-12-29T16:47:03;4.67;;;3.07;;
73023;SDS011;61199;47.526;8.538;2022-12-29T16:49:42;7.53;;;3.60;;
73023;SDS011;61199;47.526;8.538;2022-12-29T16:52:12;4.90;;;2.50;;
73023;SDS011;61199;47.526;8.538;2022-12-29T16:54:47;5.33;;;2.13;;
73023;SDS011;61199;47.526;8.538;2022-12-29T16:57:28;4.90;;;1.80;;
73023;SDS011;61199;47.526;8.538;2022-12-29T16:59:58;3.40;;;1.80;;
73023;SDS011;61199;47.526;8.538;2022-12-29T17:02:27;3.60;;;1.60;;
73023;SDS011;61199;47.526;8.538;2022-12-29T17:04:57;5.50;;;2.47;;
73023;SDS011;61199;47.526;8.538;2022-12-29T17:07:25;8.70;;;2.37;;
73023;SDS011;61199;47.526;8.538;2022-12-29T17:09:53;5.27;;;2.03;;
73023;SDS011;61199;47.526;8.538;2022-12-29T17:12:21;5.53;;;2.17;;
73023;SDS011;61199;47.526;8.538;2022-12-29T17:17:28;10.87;;;2.47;;
73023;SDS011;61199;47.526;8.538;2022-12-29T17:20:14;2.90;;;1.80;;